Ice Star — OUJK2 — position and weather

sailwx.info

Track history (hours):
 
Tides and Currents Weather Stations Pressure Air Temp Water Temp Dewpoint Dewpoint Depression Visibility Wind Speed Wind Dir Waves Ship Positions

Ice Star

Last reported at 2017-Mar-26 14:33 UTC. Time now 2017-Mar-26 15:23 UTC.
Position N 54°01' E 007°48'.

Length 367 m; draft 10.2 m.

Type: Cargo ship. MMSI: 220596000.

Date/timePositionNaut miles runAvg speedWind from/ knotsBaromVisibWave heightAir tempDewpointWater temp
2017-Mar-26 14:33N 54°01' E 007°48'1413.8
2017-Mar-26 13:33N 54°00' E 008°11'1717.0
2017-Mar-26 12:33N 53°56' E 008°39'1211.7
2017-Mar-26 11:33N 53°51' E 008°57'1211.7
2017-Mar-26 10:33N 53°52' E 009°16'1212.2
2017-Mar-26 09:34N 53°43' E 009°29'1110.5
2017-Mar-26 08:34N 53°34' E 009°40'9 9.1
2017-Mar-26 07:34N 53°32' E 009°55'1 0.6
2017-Mar-26 06:32N 53°32' E 009°55'0 0.0
2017-Mar-26 05:32N 53°32' E 009°55'0 0.0
2017-Mar-26 04:32N 53°32' E 009°55'0 0.0
2017-Mar-26 03:32N 53°32' E 009°55'0 0.0
2017-Mar-26 02:32N 53°32' E 009°55'0 0.0
2017-Mar-26 01:32N 53°32' E 009°55'0 0.0
2017-Mar-26 00:32N 53°32' E 009°55'0 0.0
2017-Mar-25 23:32N 53°32' E 009°55'0 0.0
2017-Mar-25 22:32N 53°32' E 009°55'0 0.0
2017-Mar-25 21:32N 53°32' E 009°55'0 0.0
2017-Mar-25 20:32N 53°32' E 009°55'0 0.0
2017-Mar-25 19:32N 53°32' E 009°55'0 0.0
2017-Mar-25 18:29N 53°32' E 009°55'0 0.0
2017-Mar-25 17:32N 53°32' E 009°55'0 0.0
2017-Mar-25 16:32N 53°32' E 009°55'0 0.0
2017-Mar-25 15:32N 53°32' E 009°55'0 0.0
2017-Mar-25 14:32N 53°32' E 009°55'1 0.7
2017-Mar-25 13:33N 53°32' E 009°55'7 6.6
2017-Mar-25 12:33N 53°34' E 009°44'1211.6
2017-Mar-25 11:33N 53°42' E 009°30'1414.0
2017-Mar-25 10:34N 53°53' E 009°15'1111.3
2017-Mar-25 09:33N 53°51' E 008°56'1111.2
2017-Mar-25 08:33N 53°56' E 008°39'1515.3
2017-Mar-25 07:33N 53°59' E 008°14'10 9.6
2017-Mar-25 06:33N 53°60' E 007°58'9 9.5
2017-Mar-25 05:33N 54°05' E 007°45'0 0.1
2017-Mar-25 04:33N 54°05' E 007°44'0 0.1
2017-Mar-25 03:33N 54°05' E 007°44'0 0.2
2017-Mar-25 02:32N 54°05' E 007°44'0 0.1
2017-Mar-25 01:33N 54°05' E 007°44'0 0.0
2017-Mar-25 00:32N 54°05' E 007°44'0 0.0
2017-Mar-24 23:32N 54°05' E 007°44'5 5.4
2017-Mar-24 22:33N 54°01' E 007°38'1414.5
2017-Mar-24 21:33N 53°52' E 007°57'1414.3
2017-Mar-24 20:33N 53°43' E 008°17'1111.1
2017-Mar-24 19:33N 53°36' E 008°31'0 0.2
2017-Mar-24 18:31N 53°36' E 008°31'0 0.0
2017-Mar-24 17:31N 53°36' E 008°31'0 0.0
2017-Mar-24 16:31N 53°36' E 008°31'0 0.0
2017-Mar-24 15:31N 53°36' E 008°31'0 0.0
2017-Mar-24 14:31N 53°36' E 008°31'0 0.0
2017-Mar-24 13:31N 53°36' E 008°31'0 0.0
2017-Mar-24 12:31N 53°36' E 008°31'0 0.0
2017-Mar-24 11:31N 53°36' E 008°31'0 0.0
2017-Mar-24 10:31N 53°36' E 008°31'0 0.0
2017-Mar-24 09:28N 53°36' E 008°31'0 0.0
2017-Mar-24 08:31N 53°36' E 008°31'0 0.0
2017-Mar-24 07:33N 53°36' E 008°31'3 3.5
2017-Mar-24 06:34N 53°38' E 008°27'1817.8
2017-Mar-24 05:33N 53°50' E 008°04'1817.7
2017-Mar-24 04:33N 53°54' E 007°35'7211.8
2017-Mar-23 22:27N 53°37' E 005°37'1011.6
2017-Mar-23 21:33N 53°33' E 005°20'1111.0
2017-Mar-23 20:33N 53°30' E 005°03'1110.5
2017-Mar-23 19:33N 53°25' E 004°47'1110.6
2017-Mar-23 18:33N 53°16' E 004°36'1111.4
2017-Mar-23 17:33N 53°07' E 004°27'1111.4
2017-Mar-23 16:33N 52°57' E 004°18'1110.8
2017-Mar-23 15:33N 52°47' E 004°09'1110.7
2017-Mar-23 14:33N 52°39' E 003°58'1110.9
2017-Mar-23 13:33N 52°31' E 003°45'1111.3
2017-Mar-23 12:33N 52°23' E 003°32'1211.6
2017-Mar-23 11:33N 52°15' E 003°19'1512.1
2017-Mar-23 10:20N 52°05' E 003°02'1012.3
2017-Mar-23 09:31N 51°57' E 002°50'1313.1
2017-Mar-23 08:33N 51°48' E 002°37'1414.0
2017-Mar-23 07:33N 51°37' E 002°22'1413.7
2017-Mar-23 06:33N 51°27' E 002°08'1413.7
2017-Mar-23 05:33N 51°16' E 001°54'1413.5
2017-Mar-23 04:33N 51°06' E 001°40'1313.4
2017-Mar-23 03:33N 50°56' E 001°26'1413.6
2017-Mar-23 02:31N 50°42' E 001°20'1313.6
2017-Mar-23 01:33N 50°34' E 001°04'3013.3
2017-Mar-22 23:15N 50°22' E 000°20'913.3
2017-Mar-22 22:33N 50°19' E 000°06'1412.9
2017-Mar-22 21:27N 50°14' W 000°15'1213.0
2017-Mar-22 20:33N 50°11' W 000°33'1313.2
2017-Mar-22 19:33N 50°08' W 000°52'1413.8
2017-Mar-22 18:34N 50°05' W 001°13'1414.5
2017-Mar-22 17:33N 50°01' W 001°35'1515.2
2017-Mar-22 16:33N 49°58' W 001°58'4915.1
2017-Mar-22 13:17N 49°42' W 003°11'7114.0
2017-Mar-22 08:15N 49°08' W 004°46'913.5
2017-Mar-22 07:33N 49°03' W 004°58'1313.2
2017-Mar-22 06:33N 48°56' W 005°16'1313.2
2017-Mar-22 05:33N 48°50' W 005°33'56214.7
2017-Mar-20 15:27N 39°59' W 009°52'1314.5
2017-Mar-20 14:33N 39°46' W 009°52'1614.5
2017-Mar-20 13:26N 39°30' W 009°52'1214.0
2017-Mar-20 12:33N 39°18' W 009°52'1413.5
2017-Mar-20 11:33N 39°04' W 009°52'1514.9
2017-Mar-20 10:33N 38°49' W 009°52'1919.4
2017-Mar-20 09:33N 38°30' W 009°49'2221.9
2017-Mar-20 08:33N 38°09' W 009°42'2522.1
2017-Mar-20 07:25N 37°45' W 009°35'1922.1
2017-Mar-20 06:33N 37°26' W 009°29'4321.6
2017-Mar-20 04:33N 36°45' W 009°11'2322.6
2017-Mar-20 03:33N 36°37' W 008°45'2322.7
2017-Mar-20 02:33N 36°31' W 008°18'2322.9
2017-Mar-20 01:34N 36°24' W 007°51'2322.9
2017-Mar-20 00:32N 36°16' W 007°23'6922.7
2017-Mar-19 21:30N 35°58' W 006°01'2021.0
2017-Mar-19 20:33N 35°57' W 005°37'1514.7
2017-Mar-19 19:33N 36°07' W 005°24'3 2.7
2017-Mar-19 18:32N 36°10' W 005°24'0 0.0
2017-Mar-19 17:32N 36°10' W 005°24'0 0.0
2017-Mar-19 16:32N 36°10' W 005°24'0 0.0
2017-Mar-19 15:32N 36°10' W 005°24'0 0.0
2017-Mar-19 14:32N 36°10' W 005°24'0 0.0
2017-Mar-19 13:32N 36°10' W 005°24'0 0.0
2017-Mar-19 12:32N 36°10' W 005°24'0 0.1
2017-Mar-19 11:32N 36°09' W 005°24'0 0.1
2017-Mar-19 10:29N 36°09' W 005°24'0 0.0
2017-Mar-19 09:33N 36°09' W 005°24'3 3.2
2017-Mar-19 08:33N 36°06' W 005°23'1110.8
2017-Mar-19 07:33N 36°09' W 005°10'2 2.1
2017-Mar-19 06:33N 36°10' W 005°08'2 2.1
2017-Mar-19 05:33N 36°09' W 005°10'2 1.9
2017-Mar-19 04:33N 36°10' W 005°08'2 2.1
2017-Mar-19 03:33N 36°11' W 005°06'1 1.2
2017-Mar-19 02:33N 36°12' W 005°07'1 1.1
2017-Mar-19 01:33N 36°12' W 005°09'1 1.1
2017-Mar-19 00:33N 36°11' W 005°07'1 0.7
2017-Mar-18 23:33N 36°11' W 005°07'2 1.6
2017-Mar-18 22:33N 36°12' W 005°05'1 1.3
2017-Mar-18 21:33N 36°13' W 005°04'1 1.0
2017-Mar-18 20:33N 36°13' W 005°03'1 1.2
2017-Mar-18 19:33N 36°14' W 005°04'2 1.5
2017-Mar-18 18:33N 36°15' W 005°05'2 1.8
2017-Mar-18 17:33N 36°14' W 005°07'2 2.0
2017-Mar-18 16:33N 36°13' W 005°09'2 2.4
2017-Mar-18 15:33N 36°13' W 005°06'3 2.8
2017-Mar-18 14:32N 36°12' W 005°02'1 1.1
2017-Mar-18 13:33N 36°11' W 005°03'1 1.5
2017-Mar-18 12:33N 36°12' W 005°04'0 0.3
2017-Mar-18 11:33N 36°13' W 005°04'1 0.7
2017-Mar-18 10:33N 36°12' W 005°04'2 2.0
2017-Mar-18 09:33N 36°13' W 005°06'1 0.9
2017-Mar-18 08:33N 36°13' W 005°07'1 1.3
2017-Mar-18 07:33N 36°12' W 005°06'1 1.3
2017-Mar-18 06:33N 36°10' W 005°06'1 1.5
2017-Mar-18 05:33N 36°09' W 005°06'1 1.4
2017-Mar-18 04:33N 36°10' W 005°06'3 2.8
2017-Mar-18 03:33N 36°13' W 005°04'1 0.7
2017-Mar-18 02:33N 36°13' W 005°05'1 0.9
2017-Mar-18 01:33N 36°12' W 005°05'0 0.5
2017-Mar-18 00:33N 36°11' W 005°05'0 0.1
2017-Mar-17 23:33N 36°11' W 005°06'1 1.3
2017-Mar-17 22:33N 36°10' W 005°06'1 0.8
2017-Mar-17 21:33N 36°09' W 005°06'2 2.3
2017-Mar-17 20:33N 36°11' W 005°05'4 4.0
2017-Mar-17 19:30N 36°11' W 004°60'1 0.7
2017-Mar-17 18:31N 36°11' W 004°59'1 1.1
2017-Mar-17 17:33N 36°10' W 005°00'1 0.6
2017-Mar-17 16:32N 36°11' W 005°01'1 1.0
2017-Mar-17 15:33N 36°12' W 005°00'1 1.1
2017-Mar-17 14:30N 36°13' W 004°59'1 0.5
2017-Mar-17 13:33N 36°13' W 004°59'3 2.9
2017-Mar-17 12:30N 36°11' W 005°02'3 3.1
2017-Mar-17 11:33N 36°14' W 005°01'1 1.4
2017-Mar-17 10:33N 36°14' W 005°03'3 2.9
2017-Mar-17 09:30N 36°11' W 005°05'5 5.5
2017-Mar-17 08:32N 36°08' W 004°60'  
Track history (hours):
 
Tides and Currents Weather Stations Pressure Air Temp Water Temp Dewpoint Dewpoint Depression Visibility Wind Speed Wind Dir Waves Ship Positions

Ice Star

Last reported at 2017-Mar-26 14:33 UTC. Time now 2017-Mar-26 15:23 UTC.
Position N 54°01' E 007°48'.

Length 367 m; draft 10.2 m.

Type: Cargo ship. MMSI: 220596000.

Date/timePositionNaut miles runAvg speedWind from/ knotsBaromVisibWave heightAir tempDewpointWater temp
2017-Mar-26 14:33N 54°01' E 007°48'1413.8
2017-Mar-26 13:33N 54°00' E 008°11'1717.0
2017-Mar-26 12:33N 53°56' E 008°39'1211.7
2017-Mar-26 11:33N 53°51' E 008°57'1211.7
2017-Mar-26 10:33N 53°52' E 009°16'1212.2
2017-Mar-26 09:34N 53°43' E 009°29'1110.5
2017-Mar-26 08:34N 53°34' E 009°40'9 9.1
2017-Mar-26 07:34N 53°32' E 009°55'1 0.6
2017-Mar-26 06:32N 53°32' E 009°55'0 0.0
2017-Mar-26 05:32N 53°32' E 009°55'0 0.0
2017-Mar-26 04:32N 53°32' E 009°55'0 0.0
2017-Mar-26 03:32N 53°32' E 009°55'0 0.0
2017-Mar-26 02:32N 53°32' E 009°55'0 0.0
2017-Mar-26 01:32N 53°32' E 009°55'0 0.0
2017-Mar-26 00:32N 53°32' E 009°55'0 0.0
2017-Mar-25 23:32N 53°32' E 009°55'0 0.0
2017-Mar-25 22:32N 53°32' E 009°55'0 0.0
2017-Mar-25 21:32N 53°32' E 009°55'0 0.0
2017-Mar-25 20:32N 53°32' E 009°55'0 0.0
2017-Mar-25 19:32N 53°32' E 009°55'0 0.0
2017-Mar-25 18:29N 53°32' E 009°55'0 0.0
2017-Mar-25 17:32N 53°32' E 009°55'0 0.0
2017-Mar-25 16:32N 53°32' E 009°55'0 0.0
2017-Mar-25 15:32N 53°32' E 009°55'0 0.0
2017-Mar-25 14:32N 53°32' E 009°55'1 0.7
2017-Mar-25 13:33N 53°32' E 009°55'7 6.6
2017-Mar-25 12:33N 53°34' E 009°44'1211.6
2017-Mar-25 11:33N 53°42' E 009°30'1414.0
2017-Mar-25 10:34N 53°53' E 009°15'1111.3
2017-Mar-25 09:33N 53°51' E 008°56'1111.2
2017-Mar-25 08:33N 53°56' E 008°39'1515.3
2017-Mar-25 07:33N 53°59' E 008°14'10 9.6
2017-Mar-25 06:33N 53°60' E 007°58'9 9.5
2017-Mar-25 05:33N 54°05' E 007°45'0 0.1
2017-Mar-25 04:33N 54°05' E 007°44'0 0.1
2017-Mar-25 03:33N 54°05' E 007°44'0 0.2
2017-Mar-25 02:32N 54°05' E 007°44'0 0.1
2017-Mar-25 01:33N 54°05' E 007°44'0 0.0
2017-Mar-25 00:32N 54°05' E 007°44'0 0.0
2017-Mar-24 23:32N 54°05' E 007°44'5 5.4
2017-Mar-24 22:33N 54°01' E 007°38'1414.5
2017-Mar-24 21:33N 53°52' E 007°57'1414.3
2017-Mar-24 20:33N 53°43' E 008°17'1111.1
2017-Mar-24 19:33N 53°36' E 008°31'0 0.2
2017-Mar-24 18:31N 53°36' E 008°31'0 0.0
2017-Mar-24 17:31N 53°36' E 008°31'0 0.0
2017-Mar-24 16:31N 53°36' E 008°31'0 0.0
2017-Mar-24 15:31N 53°36' E 008°31'0 0.0
2017-Mar-24 14:31N 53°36' E 008°31'0 0.0
2017-Mar-24 13:31N 53°36' E 008°31'0 0.0
2017-Mar-24 12:31N 53°36' E 008°31'0 0.0
2017-Mar-24 11:31N 53°36' E 008°31'0 0.0
2017-Mar-24 10:31N 53°36' E 008°31'0 0.0
2017-Mar-24 09:28N 53°36' E 008°31'0 0.0
2017-Mar-24 08:31N 53°36' E 008°31'0 0.0
2017-Mar-24 07:33N 53°36' E 008°31'3 3.5
2017-Mar-24 06:34N 53°38' E 008°27'1817.8
2017-Mar-24 05:33N 53°50' E 008°04'1817.7
2017-Mar-24 04:33N 53°54' E 007°35'7211.8
2017-Mar-23 22:27N 53°37' E 005°37'1011.6
2017-Mar-23 21:33N 53°33' E 005°20'1111.0
2017-Mar-23 20:33N 53°30' E 005°03'1110.5
2017-Mar-23 19:33N 53°25' E 004°47'1110.6
2017-Mar-23 18:33N 53°16' E 004°36'1111.4
2017-Mar-23 17:33N 53°07' E 004°27'1111.4
2017-Mar-23 16:33N 52°57' E 004°18'1110.8
2017-Mar-23 15:33N 52°47' E 004°09'1110.7
2017-Mar-23 14:33N 52°39' E 003°58'1110.9
2017-Mar-23 13:33N 52°31' E 003°45'1111.3
2017-Mar-23 12:33N 52°23' E 003°32'1211.6
2017-Mar-23 11:33N 52°15' E 003°19'1512.1
2017-Mar-23 10:20N 52°05' E 003°02'1012.3
2017-Mar-23 09:31N 51°57' E 002°50'1313.1
2017-Mar-23 08:33N 51°48' E 002°37'1414.0
2017-Mar-23 07:33N 51°37' E 002°22'1413.7
2017-Mar-23 06:33N 51°27' E 002°08'1413.7
2017-Mar-23 05:33N 51°16' E 001°54'1413.5
2017-Mar-23 04:33N 51°06' E 001°40'1313.4
2017-Mar-23 03:33N 50°56' E 001°26'1413.6
2017-Mar-23 02:31N 50°42' E 001°20'1313.6
2017-Mar-23 01:33N 50°34' E 001°04'3013.3
2017-Mar-22 23:15N 50°22' E 000°20'913.3
2017-Mar-22 22:33N 50°19' E 000°06'1412.9
2017-Mar-22 21:27N 50°14' W 000°15'1213.0
2017-Mar-22 20:33N 50°11' W 000°33'1313.2
2017-Mar-22 19:33N 50°08' W 000°52'1413.8
2017-Mar-22 18:34N 50°05' W 001°13'1414.5
2017-Mar-22 17:33N 50°01' W 001°35'1515.2
2017-Mar-22 16:33N 49°58' W 001°58'4915.1
2017-Mar-22 13:17N 49°42' W 003°11'7114.0
2017-Mar-22 08:15N 49°08' W 004°46'913.5
2017-Mar-22 07:33N 49°03' W 004°58'1313.2
2017-Mar-22 06:33N 48°56' W 005°16'1313.2
2017-Mar-22 05:33N 48°50' W 005°33'56214.7
2017-Mar-20 15:27N 39°59' W 009°52'1314.5
2017-Mar-20 14:33N 39°46' W 009°52'1614.5
2017-Mar-20 13:26N 39°30' W 009°52'1214.0
2017-Mar-20 12:33N 39°18' W 009°52'1413.5
2017-Mar-20 11:33N 39°04' W 009°52'1514.9
2017-Mar-20 10:33N 38°49' W 009°52'1919.4
2017-Mar-20 09:33N 38°30' W 009°49'2221.9
2017-Mar-20 08:33N 38°09' W 009°42'2522.1
2017-Mar-20 07:25N 37°45' W 009°35'1922.1
2017-Mar-20 06:33N 37°26' W 009°29'4321.6
2017-Mar-20 04:33N 36°45' W 009°11'2322.6
2017-Mar-20 03:33N 36°37' W 008°45'2322.7
2017-Mar-20 02:33N 36°31' W 008°18'2322.9
2017-Mar-20 01:34N 36°24' W 007°51'2322.9
2017-Mar-20 00:32N 36°16' W 007°23'6922.7
2017-Mar-19 21:30N 35°58' W 006°01'2021.0
2017-Mar-19 20:33N 35°57' W 005°37'1514.7
2017-Mar-19 19:33N 36°07' W 005°24'3 2.7
2017-Mar-19 18:32N 36°10' W 005°24'0 0.0
2017-Mar-19 17:32N 36°10' W 005°24'0 0.0
2017-Mar-19 16:32N 36°10' W 005°24'0 0.0
2017-Mar-19 15:32N 36°10' W 005°24'0 0.0
2017-Mar-19 14:32N 36°10' W 005°24'0 0.0
2017-Mar-19 13:32N 36°10' W 005°24'0 0.0
2017-Mar-19 12:32N 36°10' W 005°24'0 0.1
2017-Mar-19 11:32N 36°09' W 005°24'0 0.1
2017-Mar-19 10:29N 36°09' W 005°24'0 0.0
2017-Mar-19 09:33N 36°09' W 005°24'3 3.2
2017-Mar-19 08:33N 36°06' W 005°23'1110.8
2017-Mar-19 07:33N 36°09' W 005°10'2 2.1
2017-Mar-19 06:33N 36°10' W 005°08'2 2.1
2017-Mar-19 05:33N 36°09' W 005°10'2 1.9
2017-Mar-19 04:33N 36°10' W 005°08'2 2.1
2017-Mar-19 03:33N 36°11' W 005°06'1 1.2
2017-Mar-19 02:33N 36°12' W 005°07'1 1.1
2017-Mar-19 01:33N 36°12' W 005°09'1 1.1
2017-Mar-19 00:33N 36°11' W 005°07'1 0.7
2017-Mar-18 23:33N 36°11' W 005°07'2 1.6
2017-Mar-18 22:33N 36°12' W 005°05'1 1.3
2017-Mar-18 21:33N 36°13' W 005°04'1 1.0
2017-Mar-18 20:33N 36°13' W 005°03'1 1.2
2017-Mar-18 19:33N 36°14' W 005°04'2 1.5
2017-Mar-18 18:33N 36°15' W 005°05'2 1.8
2017-Mar-18 17:33N 36°14' W 005°07'2 2.0
2017-Mar-18 16:33N 36°13' W 005°09'2 2.4
2017-Mar-18 15:33N 36°13' W 005°06'3 2.8
2017-Mar-18 14:32N 36°12' W 005°02'1 1.1
2017-Mar-18 13:33N 36°11' W 005°03'1 1.5
2017-Mar-18 12:33N 36°12' W 005°04'0 0.3
2017-Mar-18 11:33N 36°13' W 005°04'1 0.7
2017-Mar-18 10:33N 36°12' W 005°04'2 2.0
2017-Mar-18 09:33N 36°13' W 005°06'1 0.9
2017-Mar-18 08:33N 36°13' W 005°07'1 1.3
2017-Mar-18 07:33N 36°12' W 005°06'1 1.3
2017-Mar-18 06:33N 36°10' W 005°06'1 1.5
2017-Mar-18 05:33N 36°09' W 005°06'1 1.4
2017-Mar-18 04:33N 36°10' W 005°06'3 2.8
2017-Mar-18 03:33N 36°13' W 005°04'1 0.7
2017-Mar-18 02:33N 36°13' W 005°05'1 0.9
2017-Mar-18 01:33N 36°12' W 005°05'0 0.5
2017-Mar-18 00:33N 36°11' W 005°05'0 0.1
2017-Mar-17 23:33N 36°11' W 005°06'1 1.3
2017-Mar-17 22:33N 36°10' W 005°06'1 0.8
2017-Mar-17 21:33N 36°09' W 005°06'2 2.3
2017-Mar-17 20:33N 36°11' W 005°05'4 4.0
2017-Mar-17 19:30N 36°11' W 004°60'1 0.7
2017-Mar-17 18:31N 36°11' W 004°59'1 1.1
2017-Mar-17 17:33N 36°10' W 005°00'1 0.6
2017-Mar-17 16:32N 36°11' W 005°01'1 1.0
2017-Mar-17 15:33N 36°12' W 005°00'1 1.1
2017-Mar-17 14:30N 36°13' W 004°59'1 0.5
2017-Mar-17 13:33N 36°13' W 004°59'3 2.9
2017-Mar-17 12:30N 36°11' W 005°02'3 3.1
2017-Mar-17 11:33N 36°14' W 005°01'1 1.4
2017-Mar-17 10:33N 36°14' W 005°03'3 2.9
2017-Mar-17 09:30N 36°11' W 005°05'5 5.5
2017-Mar-17 08:32N 36°08' W 004°60'  

Dump ship's entire track history